Terminal Aerodrome Forecast
Issued by NWS Denver/Boulder, CO

Home | Current Version | Previous Version | Text Only | Print | Product List | Glossary On
Versions: 1 2 3 4 5 6 7 8 9 10 11 12 13 14 15 16 17 18 19 20 21 22 23 24 25 26 27 28 29 30 31 32 33 34 35 36 37 38 39 40 41 42 43 44 45 46 47 48 49 50
000
FTUS45 KBOU 271724
TAFDEN
TAF
KDEN 271724Z 2718/2824 16011KT P6SM FEW030 SCT060
     FM271900 13014KT P6SM FEW030 SCT060
     FM280200 18010KT P6SM FEW040 SCT080 BKN120
     FM280800 24007KT P6SM FEW035 SCT070 BKN100
     FM281000 28006KT P6SM FEW005 SCT100
     FM281200 33006KT P6SM VCFG BKN005
     FM281600 VRB05KT P6SM SCT005
     FM282100 04005KT P6SM VCSH SCT005 OVC040=

USA.gov is the U.S. government's official web portal to all federal, state and local government web resources and services.